SWR9PZ LSZH-LFMN
Flight info
| Callsign | SWR9PZ |
|---|---|
| Flight time | 1h 0m |
| Altitude | 35000 |
| Route | VEBIT T53 GERSA DCT SOSON DCT ODINA DCT ENOBA Z185 BORDI |
| Aircraft | A321/M-SDE3FGHIRWY/LB1 |
Departure
| Time | 2026-05-08 04:16 |
|---|---|
| Airport | Zürich Airport (LSZH) |
Arrival
| Time | 2026-05-08 05:16 |
|---|---|
| Airport | Nice-Côte d'Azur Airport (LFMN) |
| Time | Latitude | Longitude | Altitude | Speed | Heading |
|---|---|---|---|---|---|
| 2026-05-08 03:44 | 47.45430 | 8.55804 | 1411 ft | 0 kts | 186° |
| 2026-05-08 04:08 | 47.45435 | 8.55805 | 1414 ft | 4 kts | 187° |
| 2026-05-08 04:09 | 47.45461 | 8.55812 | 1413 ft | 4 kts | 185° |
| 2026-05-08 04:09 | 47.45482 | 8.55808 | 1411 ft | 4 kts | 155° |
| 2026-05-08 04:09 | 47.45502 | 8.55786 | 1408 ft | 4 kts | 116° |
| 2026-05-08 04:09 | 47.45508 | 8.55758 | 1413 ft | 0 kts | 96° |
| 2026-05-08 04:11 | 47.45504 | 8.55802 | 1414 ft | 9 kts | 96° |
| 2026-05-08 04:12 | 47.45497 | 8.55896 | 1410 ft | 12 kts | 96° |
| 2026-05-08 04:12 | 47.45487 | 8.56045 | 1410 ft | 14 kts | 96° |
| 2026-05-08 04:12 | 47.45478 | 8.56183 | 1407 ft | 13 kts | 89° |
| 2026-05-08 04:12 | 47.45513 | 8.56279 | 1412 ft | 8 kts | 52° |
| 2026-05-08 04:13 | 47.45543 | 8.56333 | 1413 ft | 9 kts | 50° |
| 2026-05-08 04:13 | 47.45592 | 8.56449 | 1416 ft | 14 kts | 79° |
| 2026-05-08 04:13 | 47.45587 | 8.56582 | 1416 ft | 11 kts | 96° |
| 2026-05-08 04:13 | 47.45580 | 8.56682 | 1422 ft | 11 kts | 96° |
| 2026-05-08 04:14 | 47.45569 | 8.56839 | 1420 ft | 16 kts | 96° |
| 2026-05-08 04:14 | 47.45570 | 8.56980 | 1421 ft | 12 kts | 63° |
| 2026-05-08 04:14 | 47.45621 | 8.57022 | 1425 ft | 8 kts | 7° |
| 2026-05-08 04:14 | 47.45661 | 8.56988 | 1424 ft | 7 kts | 301° |
| 2026-05-08 04:15 | 47.45666 | 8.56956 | 1424 ft | 0 kts | 277° |
| 2026-05-08 04:15 | 47.45673 | 8.56854 | 1422 ft | 39 kts | 276° |
| 2026-05-08 04:15 | 47.45729 | 8.56067 | 1414 ft | 111 kts | 276° |
| 2026-05-08 04:15 | 47.45836 | 8.54633 | 1402 ft | 166 kts | 277° |
| 2026-05-08 04:16 | 47.45986 | 8.52918 | 2024 ft | 165 kts | 279° |
| 2026-05-08 04:16 | 47.46124 | 8.51232 | 2748 ft | 167 kts | 276° |
| 2026-05-08 04:16 | 47.46242 | 8.49465 | 3047 ft | 182 kts | 275° |
| 2026-05-08 04:16 | 47.46065 | 8.47532 | 3204 ft | 202 kts | 239° |
| 2026-05-08 04:17 | 47.45050 | 8.45993 | 3363 ft | 220 kts | 219° |
| 2026-05-08 04:17 | 47.43851 | 8.44418 | 3508 ft | 242 kts | 226° |
| 2026-05-08 04:17 | 47.42724 | 8.42436 | 3814 ft | 261 kts | 232° |
| 2026-05-08 04:17 | 47.41632 | 8.40244 | 4521 ft | 267 kts | 233° |
| 2026-05-08 04:18 | 47.40551 | 8.37994 | 5298 ft | 270 kts | 234° |
| 2026-05-08 04:18 | 47.39459 | 8.35731 | 6095 ft | 271 kts | 234° |
| 2026-05-08 04:18 | 47.38395 | 8.33434 | 6885 ft | 272 kts | 237° |
| 2026-05-08 04:18 | 47.37435 | 8.31033 | 7701 ft | 271 kts | 242° |
| 2026-05-08 04:19 | 47.36587 | 8.28554 | 8523 ft | 270 kts | 244° |
| 2026-05-08 04:19 | 47.35769 | 8.26052 | 9315 ft | 271 kts | 244° |
| 2026-05-08 04:19 | 47.34941 | 8.23548 | 10079 ft | 272 kts | 244° |
| 2026-05-08 04:19 | 47.34081 | 8.21003 | 10439 ft | 288 kts | 243° |
| 2026-05-08 04:20 | 47.33140 | 8.18272 | 10583 ft | 310 kts | 243° |
| 2026-05-08 04:20 | 47.31979 | 8.15475 | 10702 ft | 331 kts | 229° |
| 2026-05-08 04:20 | 47.30123 | 8.13363 | 11029 ft | 345 kts | 206° |
| 2026-05-08 04:20 | 47.27773 | 8.12515 | 11563 ft | 355 kts | 182° |
| 2026-05-08 04:21 | 47.25332 | 8.13201 | 12122 ft | 365 kts | 158° |
| 2026-05-08 04:21 | 47.23274 | 8.15417 | 12718 ft | 374 kts | 131° |
| 2026-05-08 04:21 | 47.22012 | 8.18774 | 13317 ft | 381 kts | 109° |
| 2026-05-08 04:21 | 47.21269 | 8.22533 | 13935 ft | 384 kts | 105° |
| 2026-05-08 04:22 | 47.20622 | 8.26358 | 14497 ft | 387 kts | 104° |
| 2026-05-08 04:22 | 47.20012 | 8.30234 | 15017 ft | 391 kts | 103° |
| 2026-05-08 04:22 | 47.19398 | 8.34147 | 15540 ft | 395 kts | 104° |
| 2026-05-08 04:22 | 47.18761 | 8.38088 | 16060 ft | 398 kts | 104° |
| 2026-05-08 04:23 | 47.18032 | 8.42029 | 16576 ft | 401 kts | 111° |
| 2026-05-08 04:23 | 47.16739 | 8.45652 | 17057 ft | 402 kts | 127° |
| 2026-05-08 04:23 | 47.14856 | 8.48685 | 17546 ft | 403 kts | 142° |
| 2026-05-08 04:23 | 47.12509 | 8.50908 | 18035 ft | 403 kts | 156° |
| 2026-05-08 04:24 | 47.09864 | 8.52237 | 18499 ft | 403 kts | 170° |
| 2026-05-08 04:24 | 47.07081 | 8.52747 | 18941 ft | 404 kts | 176° |
| 2026-05-08 04:24 | 47.04279 | 8.53145 | 19409 ft | 405 kts | 176° |
| 2026-05-08 04:24 | 47.01468 | 8.53555 | 19857 ft | 407 kts | 176° |
| 2026-05-08 04:25 | 46.98640 | 8.53972 | 20313 ft | 409 kts | 176° |
| 2026-05-08 04:25 | 46.95801 | 8.54387 | 20766 ft | 411 kts | 176° |
| 2026-05-08 04:25 | 46.92950 | 8.54800 | 21209 ft | 413 kts | 176° |
| 2026-05-08 04:25 | 46.90079 | 8.55211 | 21646 ft | 415 kts | 176° |
| 2026-05-08 04:26 | 46.87196 | 8.55625 | 22068 ft | 417 kts | 176° |
| 2026-05-08 04:26 | 46.84298 | 8.56042 | 22504 ft | 419 kts | 176° |
| 2026-05-08 04:26 | 46.81393 | 8.56460 | 22917 ft | 421 kts | 177° |
| 2026-05-08 04:26 | 46.78473 | 8.56877 | 23322 ft | 423 kts | 177° |
| 2026-05-08 04:27 | 46.75531 | 8.57296 | 23701 ft | 426 kts | 177° |
| 2026-05-08 04:27 | 46.72575 | 8.57717 | 24042 ft | 428 kts | 177° |
| 2026-05-08 04:27 | 46.69606 | 8.58141 | 24407 ft | 430 kts | 178° |
| 2026-05-08 04:27 | 46.66624 | 8.58566 | 24792 ft | 431 kts | 178° |
| 2026-05-08 04:28 | 46.63633 | 8.58988 | 25136 ft | 433 kts | 178° |
| 2026-05-08 04:28 | 46.60634 | 8.59411 | 25518 ft | 434 kts | 178° |
| 2026-05-08 04:28 | 46.57627 | 8.59835 | 25877 ft | 435 kts | 179° |
| 2026-05-08 04:28 | 46.54606 | 8.60262 | 26223 ft | 437 kts | 179° |
| 2026-05-08 04:29 | 46.51576 | 8.60693 | 26551 ft | 439 kts | 179° |
| 2026-05-08 04:29 | 46.48572 | 8.61124 | 26853 ft | 440 kts | 179° |
| 2026-05-08 04:29 | 46.45475 | 8.61569 | 27140 ft | 442 kts | 179° |
| 2026-05-08 04:29 | 46.42454 | 8.62001 | 27423 ft | 443 kts | 179° |
| 2026-05-08 04:30 | 46.39339 | 8.62443 | 27742 ft | 445 kts | 179° |
| 2026-05-08 04:30 | 46.36294 | 8.62871 | 28025 ft | 446 kts | 180° |
| 2026-05-08 04:30 | 46.33161 | 8.63311 | 28314 ft | 448 kts | 180° |
| 2026-05-08 04:30 | 46.30093 | 8.63738 | 28602 ft | 450 kts | 180° |
| 2026-05-08 04:31 | 46.26983 | 8.64170 | 28992 ft | 448 kts | 180° |
| 2026-05-08 04:31 | 46.23884 | 8.64604 | 29370 ft | 446 kts | 180° |
| 2026-05-08 04:31 | 46.20797 | 8.65040 | 29756 ft | 445 kts | 180° |
| 2026-05-08 04:31 | 46.17721 | 8.65474 | 30147 ft | 443 kts | 180° |
| 2026-05-08 04:32 | 46.14658 | 8.65906 | 30494 ft | 442 kts | 180° |
| 2026-05-08 04:32 | 46.11599 | 8.66297 | 30863 ft | 438 kts | 183° |
| 2026-05-08 04:32 | 46.08582 | 8.66147 | 31046 ft | 430 kts | 192° |
| 2026-05-08 04:32 | 46.05654 | 8.65548 | 31078 ft | 422 kts | 193° |
| 2026-05-08 04:33 | 45.99871 | 8.64341 | 31075 ft | 419 kts | 193° |
| 2026-05-08 04:33 | 45.94117 | 8.63152 | 31074 ft | 417 kts | 193° |
| 2026-05-08 04:34 | 45.88362 | 8.61979 | 31071 ft | 417 kts | 192° |
| 2026-05-08 04:34 | 45.82612 | 8.60811 | 31049 ft | 417 kts | 192° |
| 2026-05-08 04:35 | 45.76869 | 8.59648 | 31051 ft | 417 kts | 192° |
| 2026-05-08 04:35 | 45.71122 | 8.58488 | 31040 ft | 417 kts | 192° |
| 2026-05-08 04:36 | 45.65385 | 8.57322 | 31047 ft | 417 kts | 192° |
| 2026-05-08 04:36 | 45.59680 | 8.56173 | 31042 ft | 416 kts | 192° |
| 2026-05-08 04:37 | 45.53907 | 8.55016 | 31052 ft | 416 kts | 192° |
| 2026-05-08 04:37 | 45.48173 | 8.53863 | 31056 ft | 416 kts | 192° |
| 2026-05-08 04:38 | 45.42443 | 8.52709 | 31053 ft | 415 kts | 192° |
| 2026-05-08 04:38 | 45.36722 | 8.51554 | 31055 ft | 415 kts | 192° |
| 2026-05-08 04:39 | 45.31007 | 8.50417 | 31055 ft | 415 kts | 192° |
| 2026-05-08 04:39 | 45.25294 | 8.49290 | 31041 ft | 414 kts | 191° |
| 2026-05-08 04:40 | 45.19590 | 8.48157 | 31041 ft | 414 kts | 192° |
| 2026-05-08 04:40 | 45.14854 | 8.47209 | 31040 ft | 414 kts | 192° |
| 2026-05-08 04:41 | 45.09157 | 8.46079 | 31024 ft | 414 kts | 191° |
| 2026-05-08 04:41 | 45.03457 | 8.44961 | 31013 ft | 413 kts | 191° |
| 2026-05-08 04:42 | 44.97753 | 8.43847 | 31023 ft | 414 kts | 191° |
| 2026-05-08 04:42 | 44.92058 | 8.42721 | 31027 ft | 414 kts | 191° |
| 2026-05-08 04:43 | 44.86358 | 8.41600 | 31016 ft | 414 kts | 191° |
| 2026-05-08 04:43 | 44.80653 | 8.40481 | 31021 ft | 414 kts | 191° |
| 2026-05-08 04:44 | 44.74952 | 8.39363 | 31023 ft | 413 kts | 191° |
| 2026-05-08 04:44 | 44.69250 | 8.38250 | 31034 ft | 413 kts | 191° |
| 2026-05-08 04:45 | 44.63564 | 8.37145 | 31057 ft | 412 kts | 191° |
| 2026-05-08 04:45 | 44.57906 | 8.36044 | 30860 ft | 409 kts | 191° |
| 2026-05-08 04:46 | 44.55088 | 8.35495 | 30613 ft | 409 kts | 191° |
| 2026-05-08 04:46 | 44.52267 | 8.34950 | 30368 ft | 409 kts | 191° |
| 2026-05-08 04:46 | 44.49443 | 8.34407 | 30087 ft | 408 kts | 191° |
| 2026-05-08 04:46 | 44.46644 | 8.33870 | 29507 ft | 404 kts | 191° |
| 2026-05-08 04:47 | 44.43873 | 8.33331 | 28961 ft | 400 kts | 191° |
| 2026-05-08 04:47 | 44.41131 | 8.32800 | 28396 ft | 396 kts | 191° |
| 2026-05-08 04:47 | 44.38408 | 8.32276 | 27835 ft | 396 kts | 191° |
| 2026-05-08 04:47 | 44.35680 | 8.31711 | 27273 ft | 394 kts | 194° |
| 2026-05-08 04:48 | 44.33068 | 8.30648 | 26708 ft | 389 kts | 204° |
| 2026-05-08 04:48 | 44.30692 | 8.28991 | 26129 ft | 385 kts | 214° |
| 2026-05-08 04:48 | 44.28555 | 8.26755 | 25564 ft | 383 kts | 223° |
| 2026-05-08 04:48 | 44.26741 | 8.24058 | 25004 ft | 381 kts | 232° |
| 2026-05-08 04:49 | 44.25215 | 8.21030 | 24444 ft | 380 kts | 236° |
| 2026-05-08 04:49 | 44.23719 | 8.17994 | 23900 ft | 380 kts | 236° |
| 2026-05-08 04:49 | 44.22218 | 8.14972 | 23309 ft | 379 kts | 236° |
| 2026-05-08 04:49 | 44.20721 | 8.11962 | 22753 ft | 376 kts | 236° |
| 2026-05-08 04:50 | 44.19232 | 8.08977 | 22249 ft | 374 kts | 235° |
| 2026-05-08 04:50 | 44.17749 | 8.06007 | 21743 ft | 372 kts | 235° |
| 2026-05-08 04:50 | 44.16276 | 8.03057 | 21263 ft | 370 kts | 235° |
| 2026-05-08 04:50 | 44.14807 | 8.00123 | 20790 ft | 369 kts | 235° |
| 2026-05-08 04:51 | 44.13346 | 7.97204 | 20327 ft | 367 kts | 235° |
| 2026-05-08 04:51 | 44.11890 | 7.94291 | 19875 ft | 365 kts | 235° |
| 2026-05-08 04:51 | 44.10443 | 7.91393 | 19443 ft | 364 kts | 235° |
| 2026-05-08 04:51 | 44.09000 | 7.88510 | 19020 ft | 362 kts | 234° |
| 2026-05-08 04:52 | 44.07561 | 7.85639 | 18598 ft | 361 kts | 234° |
| 2026-05-08 04:52 | 44.06129 | 7.82781 | 18153 ft | 359 kts | 234° |
| 2026-05-08 04:52 | 44.04701 | 7.79941 | 17713 ft | 358 kts | 234° |
| 2026-05-08 04:52 | 44.03277 | 7.77112 | 17300 ft | 357 kts | 234° |
| 2026-05-08 04:53 | 44.01855 | 7.74290 | 16895 ft | 356 kts | 234° |
| 2026-05-08 04:53 | 44.00391 | 7.71395 | 16801 ft | 374 kts | 234° |
| 2026-05-08 04:53 | 43.98889 | 7.68417 | 16645 ft | 378 kts | 234° |
| 2026-05-08 04:53 | 43.97381 | 7.65422 | 16485 ft | 379 kts | 234° |
| 2026-05-08 04:54 | 43.95871 | 7.62426 | 16305 ft | 379 kts | 234° |
| 2026-05-08 04:54 | 43.94359 | 7.59436 | 16148 ft | 378 kts | 234° |
| 2026-05-08 04:54 | 43.92849 | 7.56453 | 15850 ft | 377 kts | 234° |
| 2026-05-08 04:54 | 43.91345 | 7.53488 | 15494 ft | 375 kts | 234° |
| 2026-05-08 04:55 | 43.89845 | 7.50537 | 15156 ft | 373 kts | 234° |
| 2026-05-08 04:55 | 43.88351 | 7.47599 | 14801 ft | 372 kts | 234° |
| 2026-05-08 04:55 | 43.86705 | 7.44862 | 14456 ft | 369 kts | 221° |
| 2026-05-08 04:55 | 43.84547 | 7.42976 | 14125 ft | 368 kts | 201° |
| 2026-05-08 04:56 | 43.82070 | 7.42193 | 13783 ft | 366 kts | 182° |
| 2026-05-08 04:56 | 43.79554 | 7.42594 | 13409 ft | 364 kts | 163° |
| 2026-05-08 04:56 | 43.77290 | 7.44108 | 13044 ft | 361 kts | 144° |
| 2026-05-08 04:56 | 43.75343 | 7.46247 | 12699 ft | 353 kts | 141° |
| 2026-05-08 04:57 | 43.73456 | 7.48363 | 12383 ft | 345 kts | 141° |
| 2026-05-08 04:57 | 43.71610 | 7.50427 | 12075 ft | 338 kts | 141° |
| 2026-05-08 04:57 | 43.69838 | 7.52513 | 11761 ft | 331 kts | 135° |
| 2026-05-08 04:57 | 43.68381 | 7.54875 | 11475 ft | 324 kts | 125° |
| 2026-05-08 04:58 | 43.67247 | 7.57531 | 11184 ft | 318 kts | 115° |
| 2026-05-08 04:58 | 43.66449 | 7.60345 | 10874 ft | 312 kts | 109° |
| 2026-05-08 04:58 | 43.65733 | 7.63150 | 10580 ft | 307 kts | 109° |
| 2026-05-08 04:58 | 43.65023 | 7.65907 | 10284 ft | 302 kts | 109° |
| 2026-05-08 04:59 | 43.64321 | 7.68619 | 9995 ft | 297 kts | 109° |
| 2026-05-08 04:59 | 43.63589 | 7.71260 | 9679 ft | 292 kts | 117° |
| 2026-05-08 04:59 | 43.62376 | 7.73461 | 9374 ft | 288 kts | 139° |
| 2026-05-08 04:59 | 43.60679 | 7.74861 | 9069 ft | 285 kts | 160° |
| 2026-05-08 05:00 | 43.58738 | 7.75276 | 8752 ft | 284 kts | 182° |
| 2026-05-08 05:00 | 43.56781 | 7.74899 | 8545 ft | 285 kts | 188° |
| 2026-05-08 05:00 | 43.54828 | 7.74469 | 8335 ft | 284 kts | 188° |
| 2026-05-08 05:00 | 43.52883 | 7.74045 | 8135 ft | 283 kts | 188° |
| 2026-05-08 05:01 | 43.50940 | 7.73623 | 7939 ft | 282 kts | 188° |
| 2026-05-08 05:01 | 43.49015 | 7.73133 | 7728 ft | 281 kts | 197° |
| 2026-05-08 05:01 | 43.47303 | 7.71867 | 7521 ft | 281 kts | 220° |
| 2026-05-08 05:01 | 43.46092 | 7.69766 | 7328 ft | 282 kts | 244° |
| 2026-05-08 05:02 | 43.45586 | 7.67173 | 7134 ft | 282 kts | 263° |
| 2026-05-08 05:02 | 43.45370 | 7.64484 | 6939 ft | 283 kts | 263° |
| 2026-05-08 05:02 | 43.45154 | 7.61799 | 6745 ft | 282 kts | 263° |
| 2026-05-08 05:02 | 43.44936 | 7.59121 | 6554 ft | 282 kts | 263° |
| 2026-05-08 05:03 | 43.44715 | 7.56442 | 6355 ft | 282 kts | 263° |
| 2026-05-08 05:03 | 43.44493 | 7.53755 | 6150 ft | 283 kts | 263° |
| 2026-05-08 05:03 | 43.44266 | 7.51073 | 5945 ft | 282 kts | 263° |
| 2026-05-08 05:03 | 43.44038 | 7.48398 | 5741 ft | 281 kts | 263° |
| 2026-05-08 05:04 | 43.43811 | 7.45728 | 5536 ft | 280 kts | 263° |
| 2026-05-08 05:04 | 43.43585 | 7.43070 | 5332 ft | 280 kts | 263° |
| 2026-05-08 05:04 | 43.43358 | 7.40417 | 5136 ft | 279 kts | 263° |
| 2026-05-08 05:04 | 43.43131 | 7.37773 | 4937 ft | 278 kts | 263° |
| 2026-05-08 05:05 | 43.42905 | 7.35136 | 4738 ft | 277 kts | 263° |
| 2026-05-08 05:05 | 43.42680 | 7.32505 | 4533 ft | 276 kts | 263° |
| 2026-05-08 05:05 | 43.42458 | 7.29890 | 4329 ft | 275 kts | 263° |
| 2026-05-08 05:05 | 43.42238 | 7.27285 | 4127 ft | 273 kts | 263° |
| 2026-05-08 05:06 | 43.42017 | 7.24697 | 4005 ft | 272 kts | 263° |
| 2026-05-08 05:06 | 43.41795 | 7.22115 | 4001 ft | 272 kts | 263° |
| 2026-05-08 05:06 | 43.41573 | 7.19535 | 4009 ft | 272 kts | 263° |
| 2026-05-08 05:06 | 43.41352 | 7.16956 | 4010 ft | 272 kts | 263° |
| 2026-05-08 05:07 | 43.41128 | 7.14382 | 4007 ft | 267 kts | 263° |
| 2026-05-08 05:07 | 43.40913 | 7.11924 | 4007 ft | 251 kts | 263° |
| 2026-05-08 05:07 | 43.40713 | 7.09644 | 4031 ft | 240 kts | 263° |
| 2026-05-08 05:07 | 43.40511 | 7.07342 | 4010 ft | 239 kts | 263° |
| 2026-05-08 05:08 | 43.40309 | 7.05074 | 4010 ft | 239 kts | 263° |
| 2026-05-08 05:08 | 43.40105 | 7.02808 | 4011 ft | 238 kts | 263° |
| 2026-05-08 05:08 | 43.39902 | 7.00547 | 4011 ft | 238 kts | 263° |
| 2026-05-08 05:08 | 43.39698 | 6.98283 | 4011 ft | 239 kts | 263° |
| 2026-05-08 05:09 | 43.39645 | 6.96042 | 3999 ft | 236 kts | 282° |
| 2026-05-08 05:09 | 43.40317 | 6.94128 | 4006 ft | 212 kts | 310° |
| 2026-05-08 05:09 | 43.41449 | 6.93066 | 4026 ft | 192 kts | 347° |
| 2026-05-08 05:09 | 43.42765 | 6.93083 | 4030 ft | 190 kts | 10° |
| 2026-05-08 05:10 | 43.44061 | 6.93413 | 4017 ft | 189 kts | 13° |
| 2026-05-08 05:10 | 43.46438 | 6.94763 | 4009 ft | 187 kts | 45° |
| 2026-05-08 05:10 | 43.47360 | 6.96022 | 4012 ft | 187 kts | 46° |
| 2026-05-08 05:11 | 43.48295 | 6.97297 | 4007 ft | 187 kts | 46° |
| 2026-05-08 05:11 | 43.49206 | 6.98538 | 4004 ft | 187 kts | 46° |
| 2026-05-08 05:11 | 43.50129 | 6.99797 | 4004 ft | 187 kts | 46° |
| 2026-05-08 05:11 | 43.51054 | 7.01060 | 3860 ft | 187 kts | 46° |
| 2026-05-08 05:12 | 43.51975 | 7.02316 | 3643 ft | 186 kts | 45° |
| 2026-05-08 05:12 | 43.52891 | 7.03567 | 3412 ft | 185 kts | 45° |
| 2026-05-08 05:12 | 43.53806 | 7.04817 | 3169 ft | 185 kts | 45° |
| 2026-05-08 05:12 | 43.54718 | 7.06063 | 2922 ft | 185 kts | 45° |
| 2026-05-08 05:13 | 43.55628 | 7.07307 | 2682 ft | 184 kts | 45° |
| 2026-05-08 05:13 | 43.56533 | 7.08545 | 2438 ft | 183 kts | 44° |
| 2026-05-08 05:13 | 43.57438 | 7.09783 | 2180 ft | 183 kts | 44° |
| 2026-05-08 05:13 | 43.58341 | 7.11020 | 1941 ft | 183 kts | 44° |
| 2026-05-08 05:14 | 43.59209 | 7.12210 | 1695 ft | 165 kts | 44° |
| 2026-05-08 05:14 | 43.59985 | 7.13272 | 1475 ft | 152 kts | 44° |
| 2026-05-08 05:14 | 43.60723 | 7.14284 | 1287 ft | 148 kts | 44° |
| 2026-05-08 05:14 | 43.61449 | 7.15280 | 1088 ft | 147 kts | 43° |
| 2026-05-08 05:15 | 43.62171 | 7.16270 | 897 ft | 146 kts | 42° |
| 2026-05-08 05:15 | 43.62889 | 7.17256 | 688 ft | 146 kts | 42° |
| 2026-05-08 05:15 | 43.63606 | 7.18239 | 508 ft | 146 kts | 41° |
| 2026-05-08 05:15 | 43.64329 | 7.19225 | 335 ft | 146 kts | 41° |
| 2026-05-08 05:16 | 43.65039 | 7.20217 | 136 ft | 145 kts | 40° |
| 2026-05-08 05:16 | 43.65743 | 7.21166 | 23 ft | 130 kts | 43° |
| 2026-05-08 05:16 | 43.66170 | 7.21752 | 21 ft | 43 kts | 46° |
| 2026-05-08 05:16 | 43.66329 | 7.21954 | 23 ft | 28 kts | 31° |
| 2026-05-08 05:17 | 43.66465 | 7.22035 | 23 ft | 12 kts | 22° |
| 2026-05-08 05:17 | 43.66515 | 7.22059 | 22 ft | 5 kts | 10° |
| 2026-05-08 05:17 | 43.66544 | 7.22043 | 22 ft | 4 kts | 321° |
| 2026-05-08 05:17 | 43.66559 | 7.22020 | 21 ft | 3 kts | 311° |
| 2026-05-08 05:18 | 43.66585 | 7.21981 | 21 ft | 10 kts | 313° |
| 2026-05-08 05:18 | 43.66637 | 7.21902 | 21 ft | 11 kts | 302° |
| 2026-05-08 05:18 | 43.66616 | 7.21815 | 21 ft | 10 kts | 226° |
| 2026-05-08 05:18 | 43.66570 | 7.21751 | 21 ft | 9 kts | 225° |
| 2026-05-08 05:19 | 43.66533 | 7.21694 | 21 ft | 6 kts | 248° |
| 2026-05-08 05:19 | 43.66547 | 7.21645 | 21 ft | 5 kts | 310° |
| 2026-05-08 05:19 | 43.66560 | 7.21626 | 21 ft | 2 kts | 314° |
| 2026-05-08 05:19 | 43.66566 | 7.21618 | 21 ft | 0 kts | 314° |